Time;durP1;ratioP1;P1;durP2;ratioP2;P2;SDS_P1;SDS_P2;PMS_P1;PMS_P2;Temp;Humidity;BMP_temperature;BMP_pressure;BME280_temperature;BME280_humidity;BME280_pressure;Samples;Min_cycle;Max_cycle;Signal;HPM_P1;HPM_P2
2021/12/14 00:01:08;;;;;;;;;;;19.60;44.30;;;;;;5136970;27;20342;-61
2021/12/14 00:03:35;;;;;;;;;;;19.70;44.40;;;;;;5137019;27;20370;-61
2021/12/14 00:06:00;;;;;;;;;;;19.60;44.40;;;;;;5137154;27;19995;-61
2021/12/14 00:08:30;;;;;;;;;;;19.60;44.40;;;;;;5118688;27;19938;-61
2021/12/14 00:16:17;;;;;;;;;;;19.60;44.40;;;;;;5123008;27;19968;-60
2021/12/14 00:18:43;;;;;;;;;;;19.70;44.40;;;;;;5136991;27;19907;-61
2021/12/14 00:21:21;;;;;;;;;;;19.60;44.40;;;;;;5136766;27;20002;-61
2021/12/14 00:24:06;;;;;;;;;;;19.60;44.40;;;;;;5136689;27;20354;-61
2021/12/14 00:26:36;;;;;;;;;;;19.60;44.40;;;;;;5136720;27;19911;-61
2021/12/14 00:29:03;;;;;;;;;;;19.60;44.30;;;;;;5118165;27;19915;-60
2021/12/14 00:31:29;;;;;;;;;;;19.60;44.40;;;;;;5135775;27;19998;-60
2021/12/14 00:33:56;;;;;;;;;;;19.60;44.40;;;;;;5136657;27;19988;-60
2021/12/14 00:36:22;;;;;;;;;;;19.60;44.40;;;;;;5136477;27;19915;-60
2021/12/14 00:38:49;;;;;;;;;;;19.60;44.40;;;;;;5136598;27;19914;-60
2021/12/14 00:41:17;;;;;;;;;;;19.60;44.30;;;;;;5136512;27;20011;-60
2021/12/14 00:43:43;;;;;;;;;;;19.60;44.40;;;;;;5136366;27;19908;-60
2021/12/14 00:46:09;;;;;;;;;;;19.60;44.30;;;;;;5136351;27;19954;-60
2021/12/14 00:48:35;;;;;;;;;;;19.60;44.30;;;;;;5136409;27;19956;-60
2021/12/14 00:51:01;;;;;;;;;;;19.60;44.30;;;;;;5136385;27;20025;-60
2021/12/14 00:53:28;;;;;;;;;;;19.60;44.30;;;;;;5136097;27;19914;-62
2021/12/14 00:55:54;;;;;;;;;;;19.60;44.30;;;;;;5136080;27;19916;-60
2021/12/14 00:58:20;;;;;;;;;;;19.60;44.30;;;;;;5136073;27;19908;-60
2021/12/14 01:00:53;;;;;;;;;;;19.60;44.30;;;;;;5135764;27;19964;-60
2021/12/14 01:03:19;;;;;;;;;;;19.60;44.30;;;;;;5135899;27;19908;-60
2021/12/14 01:05:46;;;;;;;;;;;19.60;44.30;;;;;;5135882;27;19907;-60
2021/12/14 01:08:14;;;;;;;;;;;19.60;44.30;;;;;;5135930;27;20351;-60
2021/12/14 01:10:42;;;;;;;;;;;19.60;44.30;;;;;;5135823;27;20362;-60
2021/12/14 01:13:09;;;;;;;;;;;19.60;44.30;;;;;;5135750;27;19908;-60
2021/12/14 01:16:00;;;;;;;;;;;19.60;44.30;;;;;;5135499;27;19916;-60
2021/12/14 01:21:19;;;;;;;;;;;19.60;44.30;;;;;;5135926;27;19908;-60
2021/12/14 01:23:46;;;;;;;;;;;19.60;44.30;;;;;;5135519;27;20128;-60
2021/12/14 01:26:13;;;;;;;;;;;19.50;44.30;;;;;;5135458;27;19910;-60
2021/12/14 01:28:40;;;;;;;;;;;19.60;44.30;;;;;;5135637;27;19922;-60
2021/12/14 01:31:24;;;;;;;;;;;19.50;44.30;;;;;;5135341;27;19912;-61
2021/12/14 01:33:53;;;;;;;;;;;19.60;44.30;;;;;;5135349;27;19991;-60
2021/12/14 01:36:31;;;;;;;;;;;19.50;44.30;;;;;;5135110;27;19915;-60
2021/12/14 01:39:11;;;;;;;;;;;19.60;44.30;;;;;;5135298;27;19930;-60
2021/12/14 01:41:38;;;;;;;;;;;19.60;44.30;;;;;;5134925;27;19914;-60
2021/12/14 01:44:03;;;;;;;;;;;19.60;44.30;;;;;;5135219;27;19942;-61
2021/12/14 01:46:29;;;;;;;;;;;19.50;44.30;;;;;;5135065;27;19907;-60
2021/12/14 01:48:55;;;;;;;;;;;19.50;44.30;;;;;;5135056;27;19994;-61
2021/12/14 01:51:20;;;;;;;;;;;19.50;44.30;;;;;;5134998;27;20411;-60
2021/12/14 01:53:49;;;;;;;;;;;19.50;44.30;;;;;;5135202;27;20350;-61
2021/12/14 01:56:15;;;;;;;;;;;19.60;44.30;;;;;;5134874;27;20018;-61
2021/12/14 01:58:49;;;;;;;;;;;19.60;44.30;;;;;;5134573;27;20365;-61
2021/12/14 02:01:16;;;;;;;;;;;19.50;44.30;;;;;;5135010;27;19949;-61
2021/12/14 02:03:44;;;;;;;;;;;19.50;44.30;;;;;;5134712;27;20374;-61
2021/12/14 02:06:13;;;;;;;;;;;19.50;44.30;;;;;;5134406;27;19930;-60
2021/12/14 02:08:39;;;;;;;;;;;19.50;44.30;;;;;;5134675;27;20468;-61
2021/12/14 02:11:06;;;;;;;;;;;19.50;44.30;;;;;;5134586;27;19934;-60
2021/12/14 02:13:37;;;;;;;;;;;19.50;44.30;;;;;;5134540;27;19907;-61
2021/12/14 02:16:05;;;;;;;;;;;19.50;44.30;;;;;;5115812;27;20442;-61
2021/12/14 02:18:30;;;;;;;;;;;19.50;44.30;;;;;;5134804;27;19938;-61
2021/12/14 02:20:56;;;;;;;;;;;19.50;44.30;;;;;;5134520;27;20012;-60
2021/12/14 02:23:22;;;;;;;;;;;19.50;44.30;;;;;;5116059;27;20282;-61
2021/12/14 02:25:49;;;;;;;;;;;19.50;44.20;;;;;;5134433;27;19907;-61
2021/12/14 02:28:17;;;;;;;;;;;19.50;44.20;;;;;;5134319;27;19914;-60
2021/12/14 02:30:44;;;;;;;;;;;19.50;44.30;;;;;;5134389;27;19907;-61
2021/12/14 02:33:17;;;;;;;;;;;19.50;44.30;;;;;;5134675;27;19968;-60
2021/12/14 02:35:45;;;;;;;;;;;19.50;44.30;;;;;;5134560;28;19922;-60
2021/12/14 02:38:12;;;;;;;;;;;19.50;44.30;;;;;;5134340;28;19960;-61
2021/12/14 02:40:53;;;;;;;;;;;19.50;44.30;;;;;;5115850;28;19911;-61
2021/12/14 02:43:39;;;;;;;;;;;19.50;44.30;;;;;;5134244;28;20449;-61
2021/12/14 02:46:19;;;;;;;;;;;19.50;44.20;;;;;;5133441;28;20384;-61
2021/12/14 02:49:04;;;;;;;;;;;19.50;44.20;;;;;;5134273;28;19909;-61
2021/12/14 02:51:41;;;;;;;;;;;19.50;44.20;;;;;;5134435;28;19907;-61
2021/12/14 02:54:10;;;;;;;;;;;19.50;44.20;;;;;;5135756;27;19998;-60
2021/12/14 02:56:36;;;;;;;;;;;19.50;44.20;;;;;;5138514;27;20018;-61
2021/12/14 02:59:05;;;;;;;;;;;19.50;44.20;;;;;;5138092;27;19947;-61
2021/12/14 03:01:31;;;;;;;;;;;19.50;44.20;;;;;;5138218;27;19908;-61
2021/12/14 03:04:03;;;;;;;;;;;19.50;44.20;;;;;;5138182;27;19914;-61
2021/12/14 03:06:30;;;;;;;;;;;19.50;44.20;;;;;;5138213;27;19960;-60
2021/12/14 03:09:16;;;;;;;;;;;19.50;44.20;;;;;;5138201;27;19911;-60
2021/12/14 03:11:41;;;;;;;;;;;19.50;44.20;;;;;;5138170;27;19911;-61
2021/12/14 03:14:07;;;;;;;;;;;19.50;44.20;;;;;;5137910;27;20408;-60
2021/12/14 03:16:34;;;;;;;;;;;19.50;44.30;;;;;;5137853;27;19915;-61
2021/12/14 03:19:00;;;;;;;;;;;19.50;44.20;;;;;;5138129;27;19952;-61
2021/12/14 03:21:31;;;;;;;;;;;19.50;44.20;;;;;;5137906;27;19908;-61
2021/12/14 03:24:00;;;;;;;;;;;19.50;44.20;;;;;;5137693;27;19908;-61
2021/12/14 03:26:27;;;;;;;;;;;19.50;44.20;;;;;;5137769;27;19914;-61
2021/12/14 03:28:55;;;;;;;;;;;19.50;44.20;;;;;;5137708;27;20252;-60
2021/12/14 03:31:26;;;;;;;;;;;19.50;44.20;;;;;;5137689;27;20434;-60
2021/12/14 03:33:57;;;;;;;;;;;19.50;44.30;;;;;;5137679;27;19907;-60
2021/12/14 03:36:25;;;;;;;;;;;19.50;44.30;;;;;;5137560;27;20370;-60
2021/12/14 03:39:00;;;;;;;;;;;19.50;44.30;;;;;;5137600;27;20247;-59
2021/12/14 03:41:28;;;;;;;;;;;19.50;44.20;;;;;;5137562;27;19914;-60
2021/12/14 03:43:59;;;;;;;;;;;19.50;44.20;;;;;;5119145;27;19907;-60
2021/12/14 03:46:26;;;;;;;;;;;19.50;44.20;;;;;;5118983;27;19915;-60
2021/12/14 03:48:52;;;;;;;;;;;19.50;44.30;;;;;;5118930;27;20278;-60
2021/12/14 03:51:18;;;;;;;;;;;19.50;44.30;;;;;;5137355;27;19943;-60
2021/12/14 03:53:44;;;;;;;;;;;19.50;44.30;;;;;;5137215;27;19914;-60
2021/12/14 03:56:09;;;;;;;;;;;19.50;44.30;;;;;;5137397;27;20017;-60
2021/12/14 03:58:37;;;;;;;;;;;19.50;44.30;;;;;;5137318;27;20285;-60
2021/12/14 04:01:07;;;;;;;;;;;19.50;44.30;;;;;;5096139;28;19924;-60
2021/12/14 04:03:34;;;;;;;;;;;19.50;44.30;;;;;;5096085;28;20347;-60
2021/12/14 04:05:59;;;;;;;;;;;19.50;44.20;;;;;;5095952;28;20451;-60
2021/12/14 04:08:26;;;;;;;;;;;19.50;44.30;;;;;;5095948;28;20003;-60
2021/12/14 04:10:52;;;;;;;;;;;19.40;44.30;;;;;;5096009;28;19959;-59
2021/12/14 04:13:21;;;;;;;;;;;19.50;44.30;;;;;;5096122;28;19915;-60
2021/12/14 04:15:47;;;;;;;;;;;19.50;44.20;;;;;;5095846;28;19930;-60
2021/12/14 04:18:13;;;;;;;;;;;19.50;44.30;;;;;;5095864;28;19909;-60
2021/12/14 04:20:40;;;;;;;;;;;19.50;44.20;;;;;;5095778;28;19915;-60
2021/12/14 04:23:11;;;;;;;;;;;19.40;44.30;;;;;;5095712;28;19920;-60
2021/12/14 04:25:38;;;;;;;;;;;19.50;44.30;;;;;;5095706;28;19958;-60
2021/12/14 04:28:08;;;;;;;;;;;19.50;44.30;;;;;;5095671;28;19908;-60
2021/12/14 04:30:33;;;;;;;;;;;19.40;44.30;;;;;;5095564;28;20427;-60
2021/12/14 04:33:00;;;;;;;;;;;19.40;44.30;;;;;;5095600;28;20008;-60
2021/12/14 04:35:26;;;;;;;;;;;19.40;44.30;;;;;;5095400;28;19918;-60
2021/12/14 04:37:54;;;;;;;;;;;19.40;44.30;;;;;;5095508;28;20346;-60
2021/12/14 04:40:37;;;;;;;;;;;19.40;44.30;;;;;;5095481;28;19908;-60
2021/12/14 04:51:57;;;;;;;;;;;19.40;44.40;;;;;;5095521;28;20397;-60
2021/12/14 04:54:23;;;;;;;;;;;19.40;44.30;;;;;;5095394;28;19916;-60
2021/12/14 04:56:49;;;;;;;;;;;19.40;44.40;;;;;;5095067;28;19921;-59
2021/12/14 04:59:25;;;;;;;;;;;19.40;44.30;;;;;;5105689;27;19919;-60
2021/12/14 05:01:52;;;;;;;;;;;19.40;44.40;;;;;;5135953;27;19907;-60
2021/12/14 05:04:21;;;;;;;;;;;19.50;44.40;;;;;;5135821;27;19941;-60
2021/12/14 05:06:50;;;;;;;;;;;19.40;44.40;;;;;;5135843;27;20041;-59
2021/12/14 05:09:27;;;;;;;;;;;19.40;44.40;;;;;;5135756;27;19908;-60
2021/12/14 05:11:54;;;;;;;;;;;19.50;44.40;;;;;;5135710;27;19911;-60
2021/12/14 05:14:20;;;;;;;;;;;19.40;44.30;;;;;;5135707;27;19998;-60
2021/12/14 05:16:45;;;;;;;;;;;19.40;44.30;;;;;;5134918;27;20010;-60
2021/12/14 05:19:11;;;;;;;;;;;19.40;44.30;;;;;;5135525;27;19907;-60
2021/12/14 05:21:39;;;;;;;;;;;19.50;44.30;;;;;;5135619;27;19907;-60
2021/12/14 05:24:07;;;;;;;;;;;19.50;44.30;;;;;;5117173;27;19915;-60
2021/12/14 05:26:33;;;;;;;;;;;19.50;44.20;;;;;;5135437;27;19911;-60
2021/12/14 05:28:59;;;;;;;;;;;19.50;44.20;;;;;;5135405;27;20305;-60
2021/12/14 05:31:25;;;;;;;;;;;19.50;44.20;;;;;;5135359;27;19952;-61
2021/12/14 05:33:50;;;;;;;;;;;19.50;44.20;;;;;;5135353;27;19912;-60
2021/12/14 05:36:17;;;;;;;;;;;19.50;44.20;;;;;;5135353;27;20011;-60
2021/12/14 05:38:59;;;;;;;;;;;19.60;44.20;;;;;;5135242;27;19918;-60
2021/12/14 05:44:12;;;;;;;;;;;19.60;44.20;;;;;;5135107;27;19907;-60
2021/12/14 05:46:38;;;;;;;;;;;19.60;44.10;;;;;;5134851;27;20266;-60
2021/12/14 05:49:06;;;;;;;;;;;19.60;44.20;;;;;;5135027;27;19908;-60
2021/12/14 05:51:32;;;;;;;;;;;19.70;44.20;;;;;;5134964;27;20355;-61
2021/12/14 05:53:58;;;;;;;;;;;19.60;44.10;;;;;;5135026;27;19957;-60
2021/12/14 05:56:24;;;;;;;;;;;19.70;44.20;;;;;;5134810;27;20363;-60
2021/12/14 05:58:51;;;;;;;;;;;19.70;44.10;;;;;;5134795;27;20226;-60
2021/12/14 06:01:18;;;;;;;;;;;19.70;44.10;;;;;;5134909;27;19908;-60
2021/12/14 06:03:48;;;;;;;;;;;19.70;44.10;;;;;;5134990;27;19953;-60
2021/12/14 06:06:41;;;;;;;;;;;19.70;44.10;;;;;;5134734;27;19908;-60
2021/12/14 06:09:12;;;;;;;;;;;19.70;44.10;;;;;;5129997;27;19942;-60
2021/12/14 06:11:38;;;;;;;;;;;19.70;44.10;;;;;;5134828;27;19907;-60
2021/12/14 06:14:10;;;;;;;;;;;19.80;44.10;;;;;;5134602;27;20386;-60
2021/12/14 06:16:36;;;;;;;;;;;19.80;44.10;;;;;;5134516;27;20326;-60
2021/12/14 06:19:17;;;;;;;;;;;19.80;44.10;;;;;;5134424;27;19964;-60
2021/12/14 06:21:43;;;;;;;;;;;19.80;44.10;;;;;;5134469;27;19919;-60
2021/12/14 06:24:09;;;;;;;;;;;19.80;44.10;;;;;;5134523;27;19907;-60
2021/12/14 06:26:36;;;;;;;;;;;19.80;44.10;;;;;;5134591;27;19907;-60
2021/12/14 06:29:08;;;;;;;;;;;19.80;44.10;;;;;;5133452;27;20407;-60
2021/12/14 06:31:34;;;;;;;;;;;19.80;44.10;;;;;;5134543;27;19914;-60
2021/12/14 06:34:14;;;;;;;;;;;19.80;44.10;;;;;;5134601;27;19990;-60
2021/12/14 06:37:03;;;;;;;;;;;19.80;44.10;;;;;;5134407;28;20328;-60
2021/12/14 06:39:29;;;;;;;;;;;19.80;44.10;;;;;;5134353;28;19907;-60
2021/12/14 06:42:07;;;;;;;;;;;19.80;44.10;;;;;;5134443;28;19907;-60
2021/12/14 06:44:32;;;;;;;;;;;19.80;44.10;;;;;;5134189;28;20434;-60
2021/12/14 06:46:58;;;;;;;;;;;19.80;44.10;;;;;;5134226;28;19990;-60
2021/12/14 06:49:24;;;;;;;;;;;19.80;44.10;;;;;;5134271;28;20006;-60
2021/12/14 06:51:51;;;;;;;;;;;19.80;44.10;;;;;;5134186;28;19907;-60
2021/12/14 06:54:19;;;;;;;;;;;19.80;44.10;;;;;;5134347;28;19915;-60
2021/12/14 06:56:53;;;;;;;;;;;19.80;44.10;;;;;;5134165;27;20396;-60
2021/12/14 06:59:21;;;;;;;;;;;19.80;44.10;;;;;;5133916;27;19916;-60
2021/12/14 07:01:52;;;;;;;;;;;19.80;44.10;;;;;;5134136;28;19918;-60
2021/12/14 07:04:20;;;;;;;;;;;19.80;44.10;;;;;;5134269;27;19914;-60
2021/12/14 07:06:47;;;;;;;;;;;19.80;44.10;;;;;;5134119;28;19907;-60
2021/12/14 07:09:17;;;;;;;;;;;19.80;44.10;;;;;;5134028;28;19963;-60
2021/12/14 07:11:47;;;;;;;;;;;19.80;44.10;;;;;;5133812;28;20498;-60
2021/12/14 07:14:24;;;;;;;;;;;19.80;44.10;;;;;;5133972;28;19912;-60
2021/12/14 07:16:49;;;;;;;;;;;19.80;44.00;;;;;;5134120;28;20006;-60
2021/12/14 07:19:15;;;;;;;;;;;19.80;44.10;;;;;;5134040;28;20004;-60
2021/12/14 07:21:46;;;;;;;;;;;19.80;44.10;;;;;;5134033;27;20006;-60
2021/12/14 07:24:21;;;;;;;;;;;19.80;44.10;;;;;;5133770;28;20350;-60
2021/12/14 07:26:47;;;;;;;;;;;19.80;44.10;;;;;;5115491;28;20282;-60
2021/12/14 07:29:19;;;;;;;;;;;19.90;44.00;;;;;;5133863;28;19918;-60
2021/12/14 07:31:45;;;;;;;;;;;19.90;44.00;;;;;;5133832;28;19914;-60
2021/12/14 07:34:10;;;;;;;;;;;19.90;44.10;;;;;;5115336;28;19908;-60
2021/12/14 07:36:38;;;;;;;;;;;19.90;44.10;;;;;;5133836;28;19922;-60
2021/12/14 07:39:06;;;;;;;;;;;19.90;44.10;;;;;;5133640;27;19915;-60
2021/12/14 07:41:35;;;;;;;;;;;19.80;44.10;;;;;;5137446;27;19913;-60
2021/12/14 07:44:05;;;;;;;;;;;19.90;44.10;;;;;;5137062;27;20350;-61
2021/12/14 07:46:33;;;;;;;;;;;19.90;44.10;;;;;;5148047;27;19907;-60
2021/12/14 07:49:00;;;;;;;;;;;19.80;44.20;;;;;;5136899;27;20002;-58
2021/12/14 07:51:27;;;;;;;;;;;19.70;44.30;;;;;;5140255;27;20290;-60
2021/12/14 07:53:58;;;;;;;;;;;19.70;44.30;;;;;;5146052;27;20392;-59
2021/12/14 07:56:32;;;;;;;;;;;19.70;44.40;;;;;;5148150;27;19960;-61
2021/12/14 07:58:58;;;;;;;;;;;19.70;44.40;;;;;;5144803;27;20383;-60
2021/12/14 08:01:24;;;;;;;;;;;19.70;44.40;;;;;;5145530;27;19912;-61
2021/12/14 08:04:01;;;;;;;;;;;19.70;44.50;;;;;;5136820;27;19915;-60
2021/12/14 08:06:39;;;;;;;;;;;19.70;44.50;;;;;;5136714;27;19907;-60
2021/12/14 08:09:05;;;;;;;;;;;19.60;44.50;;;;;;5136697;27;19952;-60
2021/12/14 08:14:09;;;;;;;;;;;19.60;44.60;;;;;;5144984;27;19911;-59
2021/12/14 08:16:44;;;;;;;;;;;19.60;44.50;;;;;;5145888;27;19938;-59
2021/12/14 08:19:14;;;;;;;;;;;19.60;44.50;;;;;;5126465;27;20036;-60
2021/12/14 08:21:41;;;;;;;;;;;19.60;44.50;;;;;;5146407;27;19908;-60
2021/12/14 08:24:07;;;;;;;;;;;19.60;44.50;;;;;;5139251;27;19920;-60
2021/12/14 08:26:37;;;;;;;;;;;19.70;44.50;;;;;;5141877;27;20118;-60
2021/12/14 08:29:07;;;;;;;;;;;19.70;44.40;;;;;;5135957;27;20057;-60
2021/12/14 08:31:56;;;;;;;;;;;19.80;44.40;;;;;;5136204;27;20001;-60
2021/12/14 08:34:26;;;;;;;;;;;19.80;44.40;;;;;;5125039;27;19914;-60
2021/12/14 08:36:59;;;;;;;;;;;19.90;44.20;;;;;;5136037;27;19951;-59
2021/12/14 08:39:27;;;;;;;;;;;20.00;44.20;;;;;;5141282;27;20402;-61
2021/12/14 08:42:04;;;;;;;;;;;20.00;44.10;;;;;;5147059;27;19919;-60
2021/12/14 08:44:36;;;;;;;;;;;20.00;44.10;;;;;;5138895;27;19908;-60
2021/12/14 08:47:04;;;;;;;;;;;20.10;44.00;;;;;;5151803;27;19919;-59
2021/12/14 08:49:29;;;;;;;;;;;20.10;44.00;;;;;;5117051;27;19911;-60
2021/12/14 08:51:55;;;;;;;;;;;20.10;44.00;;;;;;5135225;27;19915;-60
2021/12/14 08:54:25;;;;;;;;;;;20.10;43.90;;;;;;5135731;27;19998;-60
2021/12/14 08:57:00;;;;;;;;;;;20.20;43.90;;;;;;5135650;27;19927;-60
2021/12/14 08:59:26;;;;;;;;;;;20.20;43.80;;;;;;5135033;27;20362;-60
2021/12/14 09:01:52;;;;;;;;;;;20.20;43.90;;;;;;5135761;27;19918;-60
2021/12/14 09:04:37;;;;;;;;;;;20.20;43.80;;;;;;5135692;27;19994;-60
2021/12/14 09:07:06;;;;;;;;;;;20.30;43.80;;;;;;5135429;27;19917;-60
2021/12/14 09:09:31;;;;;;;;;;;20.30;43.80;;;;;;5135085;27;19960;-60
2021/12/14 09:12:04;;;;;;;;;;;20.30;43.80;;;;;;5135446;27;19908;-60
2021/12/14 09:14:30;;;;;;;;;;;20.40;43.80;;;;;;5135454;27;20396;-60
2021/12/14 09:16:57;;;;;;;;;;;20.30;43.80;;;;;;5116598;27;19915;-60
2021/12/14 09:19:31;;;;;;;;;;;20.40;43.80;;;;;;5116193;27;20370;-60
2021/12/14 09:21:58;;;;;;;;;;;20.40;43.80;;;;;;5135419;27;19907;-60
2021/12/14 09:24:25;;;;;;;;;;;20.40;43.80;;;;;;5135091;27;19918;-60
2021/12/14 09:26:53;;;;;;;;;;;20.40;43.80;;;;;;5134712;27;19946;-60
2021/12/14 09:29:20;;;;;;;;;;;20.40;43.80;;;;;;5115889;27;19907;-60
2021/12/14 09:31:48;;;;;;;;;;;20.50;43.70;;;;;;5137761;27;19919;-60
2021/12/14 09:34:15;;;;;;;;;;;20.50;43.70;;;;;;5134954;27;19912;-60
2021/12/14 09:36:41;;;;;;;;;;;20.50;43.70;;;;;;5137414;27;19955;-61
2021/12/14 09:39:12;;;;;;;;;;;20.50;43.70;;;;;;5134672;27;19912;-59
2021/12/14 09:41:39;;;;;;;;;;;20.50;43.70;;;;;;5134764;27;19939;-61
2021/12/14 09:44:09;;;;;;;;;;;20.50;43.70;;;;;;5135091;27;19946;-61
2021/12/14 09:46:34;;;;;;;;;;;20.50;43.70;;;;;;5134571;27;19907;-60
2021/12/14 09:49:01;;;;;;;;;;;20.60;43.60;;;;;;5134550;27;19908;-60
2021/12/14 09:51:32;;;;;;;;;;;20.60;43.60;;;;;;5116322;27;19951;-59
2021/12/14 09:54:01;;;;;;;;;;;20.60;43.60;;;;;;5137409;27;19913;-60
2021/12/14 09:56:27;;;;;;;;;;;20.60;43.60;;;;;;5155056;27;19919;-61
2021/12/14 09:58:59;;;;;;;;;;;20.60;43.60;;;;;;5154752;27;19911;-61
2021/12/14 10:01:29;;;;;;;;;;;20.60;43.60;;;;;;5155387;27;19911;-62
2021/12/14 10:03:55;;;;;;;;;;;20.60;43.70;;;;;;5155154;27;19952;-62
2021/12/14 10:06:24;;;;;;;;;;;20.70;43.70;;;;;;5155317;27;20363;-60
2021/12/14 10:08:57;;;;;;;;;;;20.70;43.70;;;;;;5136319;27;19916;-60
2021/12/14 10:11:41;;;;;;;;;;;20.70;43.70;;;;;;5155368;27;19956;-60
2021/12/14 10:14:07;;;;;;;;;;;20.70;43.70;;;;;;5155191;27;19907;-60
2021/12/14 10:16:32;;;;;;;;;;;20.70;43.60;;;;;;5154571;27;20087;-60
2021/12/14 10:18:59;;;;;;;;;;;20.70;43.70;;;;;;5154529;27;19914;-60
2021/12/14 10:21:28;;;;;;;;;;;20.70;43.60;;;;;;5154814;27;19907;-60
2021/12/14 10:23:54;;;;;;;;;;;20.70;43.70;;;;;;5155215;27;19960;-59
2021/12/14 10:26:21;;;;;;;;;;;20.80;43.60;;;;;;5154883;27;19907;-60
2021/12/14 10:28:50;;;;;;;;;;;20.70;43.60;;;;;;5154354;27;19907;-59
2021/12/14 10:31:25;;;;;;;;;;;20.80;43.60;;;;;;5154838;27;19915;-59
2021/12/14 10:33:51;;;;;;;;;;;20.80;43.60;;;;;;5136359;27;19911;-59
2021/12/14 10:36:28;;;;;;;;;;;20.80;43.60;;;;;;5154935;27;19968;-60
2021/12/14 10:39:18;;;;;;;;;;;20.80;43.60;;;;;;5135165;27;19954;-60
2021/12/14 10:44:32;;;;;;;;;;;20.80;43.60;;;;;;5154703;27;20269;-60
2021/12/14 10:46:58;;;;;;;;;;;20.80;43.60;;;;;;5154676;27;19907;-60
2021/12/14 10:49:25;;;;;;;;;;;20.90;43.60;;;;;;5154267;27;19942;-60
2021/12/14 10:51:53;;;;;;;;;;;20.90;43.50;;;;;;5154625;27;19914;-61
2021/12/14 10:54:20;;;;;;;;;;;20.90;43.60;;;;;;5154491;27;19913;-59
2021/12/14 10:56:48;;;;;;;;;;;20.90;43.60;;;;;;5145101;27;19923;-60
2021/12/14 10:59:15;;;;;;;;;;;20.90;43.50;;;;;;5124157;27;19919;-60
2021/12/14 11:01:48;;;;;;;;;;;20.90;43.50;;;;;;5143405;27;19911;-60
2021/12/14 11:04:14;;;;;;;;;;;20.90;43.50;;;;;;5143440;27;19942;-59
2021/12/14 11:06:42;;;;;;;;;;;20.90;43.60;;;;;;5143424;27;19951;-59
2021/12/14 11:11:39;;;;;;;;;;;21.00;43.50;;;;;;5142052;27;21285;-60
2021/12/14 11:14:07;;;;;;;;;;;21.00;43.50;;;;;;5142631;27;19915;-60
2021/12/14 11:19:33;;;;;;;;;;;21.00;43.50;;;;;;5158214;27;19959;-58
2021/12/14 11:22:11;;;;;;;;;;;21.00;43.50;;;;;;5158375;27;19907;-60
2021/12/14 11:24:37;;;;;;;;;;;21.00;43.50;;;;;;5158269;27;20006;-59
2021/12/14 11:27:20;;;;;;;;;;;21.00;43.50;;;;;;5158206;27;19911;-60
2021/12/14 11:29:49;;;;;;;;;;;21.00;43.50;;;;;;5157672;27;19937;-60
2021/12/14 11:32:15;;;;;;;;;;;21.00;43.40;;;;;;5158218;27;19929;-60
2021/12/14 11:34:41;;;;;;;;;;;21.10;43.40;;;;;;5158279;27;20381;-60
2021/12/14 11:37:13;;;;;;;;;;;21.10;43.40;;;;;;5158165;27;19919;-59
2021/12/14 11:39:41;;;;;;;;;;;21.10;43.50;;;;;;5157396;27;20354;-59
2021/12/14 11:42:12;;;;;;;;;;;21.10;43.40;;;;;;5158345;27;19907;-59
2021/12/14 11:44:47;;;;;;;;;;;21.10;43.40;;;;;;5130385;27;19919;-59
2021/12/14 11:49:55;;;;;;;;;;;21.00;43.50;;;;;;5136826;27;20312;-59
2021/12/14 11:52:32;;;;;;;;;;;21.00;43.60;;;;;;5136864;27;19908;-59
2021/12/14 11:54:58;;;;;;;;;;;21.00;43.50;;;;;;5136927;27;19994;-61
2021/12/14 11:57:29;;;;;;;;;;;21.10;43.40;;;;;;5136873;27;19936;-60
2021/12/14 12:00:06;;;;;;;;;;;21.10;43.50;;;;;;5117978;27;19919;-59
2021/12/14 12:02:31;;;;;;;;;;;21.10;43.40;;;;;;5131224;27;19976;-59
2021/12/14 12:04:57;;;;;;;;;;;21.10;43.40;;;;;;5136901;27;19964;-59
2021/12/14 12:10:08;;;;;;;;;;;21.10;43.40;;;;;;5136440;27;19929;-60
2021/12/14 12:12:36;;;;;;;;;;;21.10;43.40;;;;;;5135497;27;19912;-60
2021/12/14 12:15:10;;;;;;;;;;;21.10;43.40;;;;;;5130894;27;19912;-60
2021/12/14 12:17:52;;;;;;;;;;;21.20;43.50;;;;;;5115904;28;20327;-59
2021/12/14 12:20:18;;;;;;;;;;;21.10;43.50;;;;;;5115426;28;19908;-60
2021/12/14 12:22:45;;;;;;;;;;;21.10;43.40;;;;;;5114677;28;19931;-59
2021/12/14 12:25:14;;;;;;;;;;;21.10;43.40;;;;;;5115950;28;19908;-60
2021/12/14 12:27:41;;;;;;;;;;;21.20;43.40;;;;;;5114438;28;19915;-60
2021/12/14 12:30:10;;;;;;;;;;;21.20;43.50;;;;;;5115399;28;20287;-61
2021/12/14 12:32:35;;;;;;;;;;;21.20;43.40;;;;;;5115804;28;19915;-60
2021/12/14 12:35:02;;;;;;;;;;;21.20;43.40;;;;;;5115561;28;19911;-61
2021/12/14 12:37:39;;;;;;;;;;;21.20;43.50;;;;;;5114232;28;19912;-60
2021/12/14 12:40:08;;;;;;;;;;;21.20;43.40;;;;;;5115400;28;19912;-60
2021/12/14 12:42:34;;;;;;;;;;;21.20;43.50;;;;;;5115953;28;20003;-60
2021/12/14 12:44:59;;;;;;;;;;;21.20;43.40;;;;;;5115674;28;20019;-60
2021/12/14 12:47:25;;;;;;;;;;;21.20;43.50;;;;;;5115490;28;19908;-60
2021/12/14 12:49:52;;;;;;;;;;;21.30;43.30;;;;;;5115514;28;19915;-60
2021/12/14 12:52:19;;;;;;;;;;;21.20;43.30;;;;;;5115475;28;19915;-60
2021/12/14 12:55:00;;;;;;;;;;;21.20;43.30;;;;;;5114264;28;19912;-60
2021/12/14 12:57:36;;;;;;;;;;;21.20;43.40;;;;;;5115372;28;19957;-60
2021/12/14 13:00:07;;;;;;;;;;;21.20;43.40;;;;;;5127268;27;19999;-60
2021/12/14 13:02:39;;;;;;;;;;;21.20;43.40;;;;;;5134532;27;19915;-60
2021/12/14 13:05:13;;;;;;;;;;;21.20;43.40;;;;;;5133828;27;19907;-60
2021/12/14 13:07:43;;;;;;;;;;;21.20;43.40;;;;;;5133663;27;19938;-60
2021/12/14 13:10:22;;;;;;;;;;;21.20;43.40;;;;;;5133717;27;19911;-60
2021/12/14 13:12:48;;;;;;;;;;;21.20;43.40;;;;;;5133649;27;20343;-60
2021/12/14 13:15:28;;;;;;;;;;;21.20;43.40;;;;;;5133548;27;20009;-60
2021/12/14 13:18:12;;;;;;;;;;;21.20;43.40;;;;;;5134765;27;19939;-60
2021/12/14 13:20:38;;;;;;;;;;;21.30;43.40;;;;;;5135544;27;20430;-59
2021/12/14 13:23:03;;;;;;;;;;;21.20;43.40;;;;;;5135756;27;19945;-60
2021/12/14 13:25:33;;;;;;;;;;;21.30;43.30;;;;;;5135622;27;19908;-60
2021/12/14 13:27:58;;;;;;;;;;;21.30;43.30;;;;;;5135479;27;20371;-60
2021/12/14 13:30:26;;;;;;;;;;;21.30;43.30;;;;;;5135838;27;19907;-60
2021/12/14 13:32:52;;;;;;;;;;;21.30;43.30;;;;;;5135908;27;20347;-59
2021/12/14 13:35:21;;;;;;;;;;;21.30;43.30;;;;;;5135424;27;19918;-60
2021/12/14 13:37:48;;;;;;;;;;;21.30;43.30;;;;;;5134860;27;19957;-59
2021/12/14 13:40:21;;;;;;;;;;;21.30;43.30;;;;;;5135236;27;19934;-59
2021/12/14 13:42:59;;;;;;;;;;;21.30;43.30;;;;;;5135023;27;19908;-58
2021/12/14 13:45:26;;;;;;;;;;;21.30;43.30;;;;;;5134989;27;19916;-58
2021/12/14 13:47:52;;;;;;;;;;;21.30;43.30;;;;;;5135132;27;19930;-59
2021/12/14 13:50:20;;;;;;;;;;;21.30;43.30;;;;;;5134753;27;20382;-59
2021/12/14 13:52:45;;;;;;;;;;;21.30;43.30;;;;;;5134786;27;20274;-59
2021/12/14 13:55:37;;;;;;;;;;;21.30;43.30;;;;;;5134996;27;20278;-60
2021/12/14 13:58:06;;;;;;;;;;;21.30;43.30;;;;;;5130841;27;19916;-59
2021/12/14 14:00:34;;;;;;;;;;;21.30;43.30;;;;;;5134800;27;19920;-59
2021/12/14 14:03:00;;;;;;;;;;;21.30;43.30;;;;;;5134682;27;19994;-59
2021/12/14 14:05:26;;;;;;;;;;;21.30;43.30;;;;;;5116211;28;20014;-60
2021/12/14 14:07:54;;;;;;;;;;;21.20;43.30;;;;;;5134610;27;19908;-60
2021/12/14 14:10:20;;;;;;;;;;;21.30;43.30;;;;;;5134591;27;19907;-60
2021/12/14 14:13:08;;;;;;;;;;;21.30;43.30;;;;;;5116126;27;19911;-59
2021/12/14 14:15:35;;;;;;;;;;;21.30;43.30;;;;;;5123306;27;19911;-60
2021/12/14 14:18:02;;;;;;;;;;;21.30;43.30;;;;;;5134661;27;19911;-60
2021/12/14 14:20:33;;;;;;;;;;;21.30;43.30;;;;;;5134539;27;19908;-59
2021/12/14 14:23:19;;;;;;;;;;;21.30;43.30;;;;;;5134616;27;19915;-59
2021/12/14 14:25:47;;;;;;;;;;;21.30;43.30;;;;;;5134184;27;20207;-59
2021/12/14 14:28:24;;;;;;;;;;;21.40;43.30;;;;;;5134408;27;19915;-59
2021/12/14 14:30:51;;;;;;;;;;;21.30;43.30;;;;;;5134226;27;19947;-59
2021/12/14 14:33:26;;;;;;;;;;;21.30;43.30;;;;;;5133994;27;19915;-60
2021/12/14 14:36:00;;;;;;;;;;;21.30;43.30;;;;;;5134390;27;19922;-59
2021/12/14 14:38:25;;;;;;;;;;;21.30;43.20;;;;;;5134301;28;20016;-60
2021/12/14 14:40:51;;;;;;;;;;;21.30;43.20;;;;;;5134177;28;20007;-60
2021/12/14 14:43:17;;;;;;;;;;;21.40;43.20;;;;;;5134258;28;19915;-59
2021/12/14 14:45:43;;;;;;;;;;;21.30;43.30;;;;;;5134160;28;20088;-60
2021/12/14 14:48:20;;;;;;;;;;;21.30;43.30;;;;;;5134015;28;19914;-60
2021/12/14 14:50:46;;;;;;;;;;;21.30;43.20;;;;;;5136655;27;19949;-59
2021/12/14 14:53:17;;;;;;;;;;;21.40;43.30;;;;;;5138483;27;19912;-59
2021/12/14 14:55:46;;;;;;;;;;;21.30;43.20;;;;;;5138504;27;19955;-60
2021/12/14 14:58:16;;;;;;;;;;;21.40;43.20;;;;;;5138358;27;19912;-60
2021/12/14 15:00:47;;;;;;;;;;;21.40;43.20;;;;;;5138072;27;19927;-59
2021/12/14 15:03:18;;;;;;;;;;;21.40;43.20;;;;;;5138452;27;19908;-59
2021/12/14 15:05:47;;;;;;;;;;;21.40;43.20;;;;;;5138065;27;19956;-59